sensor_id;sensor_type;location;lat;lon;timestamp;P1;durP1;ratioP1;P2;durP2;ratioP2
51800;SDS011;37855;53.204;6.568;2023-04-03T00:00:54;5.53;;;1.90;;
51800;SDS011;37855;53.204;6.568;2023-04-03T00:03:21;3.97;;;1.60;;
51800;SDS011;37855;53.204;6.568;2023-04-03T00:05:47;3.15;;;1.40;;
51800;SDS011;37855;53.204;6.568;2023-04-03T00:08:13;3.33;;;1.53;;
51800;SDS011;37855;53.204;6.568;2023-04-03T00:10:39;4.63;;;2.03;;
51800;SDS011;37855;53.204;6.568;2023-04-03T00:13:06;4.68;;;1.67;;
51800;SDS011;37855;53.204;6.568;2023-04-03T00:15:33;3.15;;;1.90;;
51800;SDS011;37855;53.204;6.568;2023-04-03T00:17:59;3.40;;;1.83;;
51800;SDS011;37855;53.204;6.568;2023-04-03T00:20:25;4.30;;;1.55;;
51800;SDS011;37855;53.204;6.568;2023-04-03T00:22:52;3.30;;;1.60;;
51800;SDS011;37855;53.204;6.568;2023-04-03T00:25:18;5.07;;;1.95;;
51800;SDS011;37855;53.204;6.568;2023-04-03T00:27:44;4.63;;;1.77;;
51800;SDS011;37855;53.204;6.568;2023-04-03T00:30:14;4.82;;;1.90;;
51800;SDS011;37855;53.204;6.568;2023-04-03T00:32:50;4.18;;;1.80;;
51800;SDS011;37855;53.204;6.568;2023-04-03T00:35:17;6.60;;;1.73;;
51800;SDS011;37855;53.204;6.568;2023-04-03T00:37:44;4.37;;;1.70;;
51800;SDS011;37855;53.204;6.568;2023-04-03T00:40:11;4.40;;;1.60;;
51800;SDS011;37855;53.204;6.568;2023-04-03T00:42:38;3.75;;;1.52;;
51800;SDS011;37855;53.204;6.568;2023-04-03T00:47:31;4.20;;;1.57;;
51800;SDS011;37855;53.204;6.568;2023-04-03T00:49:57;4.15;;;1.73;;
51800;SDS011;37855;53.204;6.568;2023-04-03T00:52:25;7.40;;;2.00;;
51800;SDS011;37855;53.204;6.568;2023-04-03T00:54:54;3.50;;;1.40;;
51800;SDS011;37855;53.204;6.568;2023-04-03T00:57:26;5.22;;;1.65;;
51800;SDS011;37855;53.204;6.568;2023-04-03T00:59:54;5.15;;;1.80;;
51800;SDS011;37855;53.204;6.568;2023-04-03T01:02:22;3.83;;;1.70;;
51800;SDS011;37855;53.204;6.568;2023-04-03T01:04:48;3.27;;;2.00;;
51800;SDS011;37855;53.204;6.568;2023-04-03T01:07:18;6.38;;;2.10;;
51800;SDS011;37855;53.204;6.568;2023-04-03T01:09:56;5.45;;;1.90;;
51800;SDS011;37855;53.204;6.568;2023-04-03T01:12:27;4.57;;;1.90;;
51800;SDS011;37855;53.204;6.568;2023-04-03T01:15:03;4.82;;;2.03;;
51800;SDS011;37855;53.204;6.568;2023-04-03T01:22:33;2.92;;;1.88;;
51800;SDS011;37855;53.204;6.568;2023-04-03T01:25:22;7.55;;;1.95;;
51800;SDS011;37855;53.204;6.568;2023-04-03T01:27:49;6.85;;;2.00;;
51800;SDS011;37855;53.204;6.568;2023-04-03T01:30:16;5.00;;;1.60;;
51800;SDS011;37855;53.204;6.568;2023-04-03T01:32:43;5.07;;;2.10;;
51800;SDS011;37855;53.204;6.568;2023-04-03T01:35:09;3.60;;;1.95;;
51800;SDS011;37855;53.204;6.568;2023-04-03T01:37:36;4.40;;;1.70;;
51800;SDS011;37855;53.204;6.568;2023-04-03T01:40:02;4.03;;;1.67;;
51800;SDS011;37855;53.204;6.568;2023-04-03T01:42:28;4.55;;;1.80;;
51800;SDS011;37855;53.204;6.568;2023-04-03T01:44:54;6.70;;;2.03;;
51800;SDS011;37855;53.204;6.568;2023-04-03T01:47:20;6.95;;;2.25;;
51800;SDS011;37855;53.204;6.568;2023-04-03T01:49:46;6.00;;;2.20;;
51800;SDS011;37855;53.204;6.568;2023-04-03T01:52:12;4.93;;;2.03;;
51800;SDS011;37855;53.204;6.568;2023-04-03T01:54:38;4.40;;;2.10;;
51800;SDS011;37855;53.204;6.568;2023-04-03T01:57:04;5.38;;;1.95;;
51800;SDS011;37855;53.204;6.568;2023-04-03T01:59:30;7.60;;;2.07;;
51800;SDS011;37855;53.204;6.568;2023-04-03T02:01:56;6.28;;;2.15;;
51800;SDS011;37855;53.204;6.568;2023-04-03T02:04:22;5.40;;;2.17;;
51800;SDS011;37855;53.204;6.568;2023-04-03T02:06:48;7.05;;;1.90;;
51800;SDS011;37855;53.204;6.568;2023-04-03T02:09:14;5.03;;;2.30;;
51800;SDS011;37855;53.204;6.568;2023-04-03T02:11:50;7.00;;;1.98;;
51800;SDS011;37855;53.204;6.568;2023-04-03T02:14:16;5.93;;;1.95;;
51800;SDS011;37855;53.204;6.568;2023-04-03T02:16:42;5.27;;;1.80;;
51800;SDS011;37855;53.204;6.568;2023-04-03T02:19:07;5.68;;;2.08;;
51800;SDS011;37855;53.204;6.568;2023-04-03T02:21:33;7.73;;;2.10;;
51800;SDS011;37855;53.204;6.568;2023-04-03T02:23:59;6.15;;;2.03;;
51800;SDS011;37855;53.204;6.568;2023-04-03T02:26:25;6.37;;;1.80;;
51800;SDS011;37855;53.204;6.568;2023-04-03T02:28:51;7.18;;;2.20;;
51800;SDS011;37855;53.204;6.568;2023-04-03T02:31:17;4.63;;;2.08;;
51800;SDS011;37855;53.204;6.568;2023-04-03T02:33:43;5.37;;;2.17;;
51800;SDS011;37855;53.204;6.568;2023-04-03T02:36:08;4.60;;;2.10;;
51800;SDS011;37855;53.204;6.568;2023-04-03T02:38:35;6.45;;;2.13;;
51800;SDS011;37855;53.204;6.568;2023-04-03T02:41:01;7.37;;;2.27;;
51800;SDS011;37855;53.204;6.568;2023-04-03T02:43:32;5.90;;;2.17;;
51800;SDS011;37855;53.204;6.568;2023-04-03T02:45:58;7.35;;;2.25;;
51800;SDS011;37855;53.204;6.568;2023-04-03T02:48:24;6.00;;;2.00;;
51800;SDS011;37855;53.204;6.568;2023-04-03T02:50:50;6.00;;;1.93;;
51800;SDS011;37855;53.204;6.568;2023-04-03T02:53:16;5.35;;;2.30;;
51800;SDS011;37855;53.204;6.568;2023-04-03T02:55:42;6.68;;;2.22;;
51800;SDS011;37855;53.204;6.568;2023-04-03T02:58:07;5.07;;;2.10;;
51800;SDS011;37855;53.204;6.568;2023-04-03T03:00:33;8.10;;;2.17;;
51800;SDS011;37855;53.204;6.568;2023-04-03T03:02:59;5.83;;;2.30;;
51800;SDS011;37855;53.204;6.568;2023-04-03T03:05:25;6.82;;;2.35;;
51800;SDS011;37855;53.204;6.568;2023-04-03T03:07:51;5.50;;;2.72;;
51800;SDS011;37855;53.204;6.568;2023-04-03T03:10:17;6.13;;;2.03;;
51800;SDS011;37855;53.204;6.568;2023-04-03T03:12:42;6.63;;;2.60;;
51800;SDS011;37855;53.204;6.568;2023-04-03T03:15:08;7.13;;;2.40;;
51800;SDS011;37855;53.204;6.568;2023-04-03T03:17:34;8.07;;;2.10;;
51800;SDS011;37855;53.204;6.568;2023-04-03T03:20:01;6.68;;;2.50;;
51800;SDS011;37855;53.204;6.568;2023-04-03T03:22:28;4.43;;;2.42;;
51800;SDS011;37855;53.204;6.568;2023-04-03T03:25:02;7.30;;;2.10;;
51800;SDS011;37855;53.204;6.568;2023-04-03T03:27:28;4.95;;;2.22;;
51800;SDS011;37855;53.204;6.568;2023-04-03T03:29:54;6.22;;;2.17;;
51800;SDS011;37855;53.204;6.568;2023-04-03T03:32:20;8.13;;;2.27;;
51800;SDS011;37855;53.204;6.568;2023-04-03T03:34:45;6.18;;;2.25;;
51800;SDS011;37855;53.204;6.568;2023-04-03T03:37:11;5.57;;;2.57;;
51800;SDS011;37855;53.204;6.568;2023-04-03T03:39:37;8.75;;;2.20;;
51800;SDS011;37855;53.204;6.568;2023-04-03T03:42:02;6.67;;;2.33;;
51800;SDS011;37855;53.204;6.568;2023-04-03T03:44:28;6.03;;;2.28;;
51800;SDS011;37855;53.204;6.568;2023-04-03T03:46:55;4.90;;;2.27;;
51800;SDS011;37855;53.204;6.568;2023-04-03T03:49:21;6.93;;;2.53;;
51800;SDS011;37855;53.204;6.568;2023-04-03T03:51:47;7.35;;;2.30;;
51800;SDS011;37855;53.204;6.568;2023-04-03T03:54:13;8.10;;;2.80;;
51800;SDS011;37855;53.204;6.568;2023-04-03T03:56:38;5.18;;;2.50;;
51800;SDS011;37855;53.204;6.568;2023-04-03T03:59:05;7.05;;;2.53;;
51800;SDS011;37855;53.204;6.568;2023-04-03T04:01:30;5.97;;;2.60;;
51800;SDS011;37855;53.204;6.568;2023-04-03T04:03:59;7.15;;;2.50;;
51800;SDS011;37855;53.204;6.568;2023-04-03T04:06:25;6.18;;;2.58;;
51800;SDS011;37855;53.204;6.568;2023-04-03T04:08:51;9.75;;;2.85;;
51800;SDS011;37855;53.204;6.568;2023-04-03T04:11:16;6.70;;;2.60;;
51800;SDS011;37855;53.204;6.568;2023-04-03T04:13:42;5.45;;;2.20;;
51800;SDS011;37855;53.204;6.568;2023-04-03T04:16:15;6.73;;;2.13;;
51800;SDS011;37855;53.204;6.568;2023-04-03T04:18:42;6.30;;;2.90;;
51800;SDS011;37855;53.204;6.568;2023-04-03T04:21:07;10.98;;;2.90;;
51800;SDS011;37855;53.204;6.568;2023-04-03T04:23:33;9.73;;;2.90;;
51800;SDS011;37855;53.204;6.568;2023-04-03T04:25:59;6.15;;;2.83;;
51800;SDS011;37855;53.204;6.568;2023-04-03T04:28:26;8.07;;;2.63;;
51800;SDS011;37855;53.204;6.568;2023-04-03T04:30:51;5.47;;;2.45;;
51800;SDS011;37855;53.204;6.568;2023-04-03T04:33:17;6.70;;;2.63;;
51800;SDS011;37855;53.204;6.568;2023-04-03T04:35:43;7.28;;;2.30;;
51800;SDS011;37855;53.204;6.568;2023-04-03T04:38:08;8.23;;;3.00;;
51800;SDS011;37855;53.204;6.568;2023-04-03T04:40:34;5.95;;;3.10;;
51800;SDS011;37855;53.204;6.568;2023-04-03T04:43:00;7.07;;;2.58;;
51800;SDS011;37855;53.204;6.568;2023-04-03T04:45:29;8.17;;;2.90;;
51800;SDS011;37855;53.204;6.568;2023-04-03T04:47:55;8.48;;;2.70;;
51800;SDS011;37855;53.204;6.568;2023-04-03T04:50:21;7.22;;;2.70;;
51800;SDS011;37855;53.204;6.568;2023-04-03T04:52:46;7.87;;;3.13;;
51800;SDS011;37855;53.204;6.568;2023-04-03T04:55:12;7.33;;;2.70;;
51800;SDS011;37855;53.204;6.568;2023-04-03T04:57:38;6.17;;;2.40;;
51800;SDS011;37855;53.204;6.568;2023-04-03T05:00:04;7.13;;;2.33;;
51800;SDS011;37855;53.204;6.568;2023-04-03T05:02:33;7.55;;;2.97;;
51800;SDS011;37855;53.204;6.568;2023-04-03T05:04:59;10.67;;;3.27;;
51800;SDS011;37855;53.204;6.568;2023-04-03T05:07:25;6.93;;;2.80;;
51800;SDS011;37855;53.204;6.568;2023-04-03T05:09:50;10.38;;;3.30;;
51800;SDS011;37855;53.204;6.568;2023-04-03T05:12:16;6.50;;;3.77;;
51800;SDS011;37855;53.204;6.568;2023-04-03T05:14:42;7.88;;;3.35;;
51800;SDS011;37855;53.204;6.568;2023-04-03T05:17:08;7.07;;;2.80;;
51800;SDS011;37855;53.204;6.568;2023-04-03T05:19:33;5.55;;;2.60;;
51800;SDS011;37855;53.204;6.568;2023-04-03T05:22:02;7.47;;;3.30;;
51800;SDS011;37855;53.204;6.568;2023-04-03T05:24:28;8.82;;;2.85;;
51800;SDS011;37855;53.204;6.568;2023-04-03T05:26:53;7.23;;;2.63;;
51800;SDS011;37855;53.204;6.568;2023-04-03T05:29:19;6.90;;;2.53;;
51800;SDS011;37855;53.204;6.568;2023-04-03T05:31:50;6.05;;;2.78;;
51800;SDS011;37855;53.204;6.568;2023-04-03T05:34:31;9.20;;;2.80;;
51800;SDS011;37855;53.204;6.568;2023-04-03T05:36:57;7.78;;;3.05;;
51800;SDS011;37855;53.204;6.568;2023-04-03T05:39:23;8.00;;;2.70;;
51800;SDS011;37855;53.204;6.568;2023-04-03T05:41:53;8.67;;;2.67;;
51800;SDS011;37855;53.204;6.568;2023-04-03T05:44:20;8.90;;;2.80;;
51800;SDS011;37855;53.204;6.568;2023-04-03T05:46:46;7.35;;;2.85;;
51800;SDS011;37855;53.204;6.568;2023-04-03T05:49:15;9.77;;;3.00;;
51800;SDS011;37855;53.204;6.568;2023-04-03T05:51:49;9.50;;;2.90;;
51800;SDS011;37855;53.204;6.568;2023-04-03T05:54:58;10.05;;;2.50;;
51800;SDS011;37855;53.204;6.568;2023-04-03T06:00:05;5.03;;;2.47;;
51800;SDS011;37855;53.204;6.568;2023-04-03T06:02:32;5.70;;;2.80;;
51800;SDS011;37855;53.204;6.568;2023-04-03T06:04:58;9.73;;;3.07;;
51800;SDS011;37855;53.204;6.568;2023-04-03T06:07:24;8.53;;;2.90;;
51800;SDS011;37855;53.204;6.568;2023-04-03T06:09:53;9.27;;;3.07;;
51800;SDS011;37855;53.204;6.568;2023-04-03T06:12:20;7.70;;;2.80;;
51800;SDS011;37855;53.204;6.568;2023-04-03T06:14:51;9.45;;;2.58;;
51800;SDS011;37855;53.204;6.568;2023-04-03T06:17:17;8.48;;;2.55;;
51800;SDS011;37855;53.204;6.568;2023-04-03T06:19:43;8.05;;;2.50;;
51800;SDS011;37855;53.204;6.568;2023-04-03T06:22:09;6.33;;;2.47;;
51800;SDS011;37855;53.204;6.568;2023-04-03T06:27:10;11.95;;;2.92;;
51800;SDS011;37855;53.204;6.568;2023-04-03T06:29:37;7.78;;;3.00;;
51800;SDS011;37855;53.204;6.568;2023-04-03T06:32:03;9.63;;;2.73;;
51800;SDS011;37855;53.204;6.568;2023-04-03T06:34:28;10.82;;;3.33;;
51800;SDS011;37855;53.204;6.568;2023-04-03T06:36:54;8.10;;;2.77;;
51800;SDS011;37855;53.204;6.568;2023-04-03T06:39:21;9.52;;;3.35;;
51800;SDS011;37855;53.204;6.568;2023-04-03T06:41:47;7.90;;;2.80;;
51800;SDS011;37855;53.204;6.568;2023-04-03T06:44:16;11.65;;;3.33;;
51800;SDS011;37855;53.204;6.568;2023-04-03T06:46:42;9.83;;;3.23;;
51800;SDS011;37855;53.204;6.568;2023-04-03T06:49:14;5.80;;;2.83;;
51800;SDS011;37855;53.204;6.568;2023-04-03T06:54:32;9.73;;;3.17;;
51800;SDS011;37855;53.204;6.568;2023-04-03T06:56:58;10.45;;;2.83;;
51800;SDS011;37855;53.204;6.568;2023-04-03T06:59:24;7.75;;;3.10;;
51800;SDS011;37855;53.204;6.568;2023-04-03T07:01:50;11.50;;;3.13;;
51800;SDS011;37855;53.204;6.568;2023-04-03T07:04:16;9.03;;;3.20;;
51800;SDS011;37855;53.204;6.568;2023-04-03T07:06:42;8.13;;;3.72;;
51800;SDS011;37855;53.204;6.568;2023-04-03T07:09:14;8.03;;;3.20;;
51800;SDS011;37855;53.204;6.568;2023-04-03T07:11:40;10.35;;;2.85;;
51800;SDS011;37855;53.204;6.568;2023-04-03T07:14:06;8.90;;;2.83;;
51800;SDS011;37855;53.204;6.568;2023-04-03T07:16:33;11.95;;;2.92;;
51800;SDS011;37855;53.204;6.568;2023-04-03T07:19:02;14.23;;;3.53;;
51800;SDS011;37855;53.204;6.568;2023-04-03T07:21:39;14.07;;;3.20;;
51800;SDS011;37855;53.204;6.568;2023-04-03T07:24:07;13.00;;;3.22;;
51800;SDS011;37855;53.204;6.568;2023-04-03T07:26:32;14.27;;;3.33;;
51800;SDS011;37855;53.204;6.568;2023-04-03T07:28:58;10.63;;;2.70;;
51800;SDS011;37855;53.204;6.568;2023-04-03T07:31:24;10.18;;;3.08;;
51800;SDS011;37855;53.204;6.568;2023-04-03T07:33:50;7.57;;;3.40;;
51800;SDS011;37855;53.204;6.568;2023-04-03T07:36:17;9.82;;;2.53;;
51800;SDS011;37855;53.204;6.568;2023-04-03T07:38:46;9.63;;;3.03;;
51800;SDS011;37855;53.204;6.568;2023-04-03T07:48:12;7.15;;;2.78;;
51800;SDS011;37855;53.204;6.568;2023-04-03T07:50:41;8.10;;;3.10;;
51800;SDS011;37855;53.204;6.568;2023-04-03T07:53:07;7.80;;;2.60;;
51800;SDS011;37855;53.204;6.568;2023-04-03T07:55:33;7.10;;;2.60;;
51800;SDS011;37855;53.204;6.568;2023-04-03T07:57:59;8.63;;;2.72;;
51800;SDS011;37855;53.204;6.568;2023-04-03T08:00:25;8.93;;;2.90;;
51800;SDS011;37855;53.204;6.568;2023-04-03T08:02:51;6.38;;;2.72;;
51800;SDS011;37855;53.204;6.568;2023-04-03T08:05:17;5.90;;;2.33;;
51800;SDS011;37855;53.204;6.568;2023-04-03T08:07:44;10.07;;;3.10;;
51800;SDS011;37855;53.204;6.568;2023-04-03T08:10:13;7.22;;;2.85;;
51800;SDS011;37855;53.204;6.568;2023-04-03T08:12:40;6.70;;;2.63;;
51800;SDS011;37855;53.204;6.568;2023-04-03T08:15:06;8.53;;;3.00;;
51800;SDS011;37855;53.204;6.568;2023-04-03T08:17:33;9.20;;;2.90;;
51800;SDS011;37855;53.204;6.568;2023-04-03T08:20:11;6.45;;;2.65;;
51800;SDS011;37855;53.204;6.568;2023-04-03T08:26:22;7.18;;;2.83;;
51800;SDS011;37855;53.204;6.568;2023-04-03T08:28:51;6.30;;;3.00;;
51800;SDS011;37855;53.204;6.568;2023-04-03T08:31:18;6.95;;;2.60;;
51800;SDS011;37855;53.204;6.568;2023-04-03T08:33:47;12.40;;;2.60;;
51800;SDS011;37855;53.204;6.568;2023-04-03T08:38:47;5.95;;;2.30;;
51800;SDS011;37855;53.204;6.568;2023-04-03T08:41:15;6.63;;;2.37;;
51800;SDS011;37855;53.204;6.568;2023-04-03T08:49:44;5.95;;;2.30;;
51800;SDS011;37855;53.204;6.568;2023-04-03T08:52:17;6.47;;;2.20;;
51800;SDS011;37855;53.204;6.568;2023-04-03T08:54:49;6.80;;;1.87;;
51800;SDS011;37855;53.204;6.568;2023-04-03T08:57:18;4.85;;;2.03;;
51800;SDS011;37855;53.204;6.568;2023-04-03T08:59:52;4.72;;;2.20;;
51800;SDS011;37855;53.204;6.568;2023-04-03T09:02:31;9.07;;;2.07;;
51800;SDS011;37855;53.204;6.568;2023-04-03T09:05:33;4.77;;;1.80;;
51800;SDS011;37855;53.204;6.568;2023-04-03T09:13:35;6.43;;;2.30;;
51800;SDS011;37855;53.204;6.568;2023-04-03T09:18:38;3.73;;;1.60;;
51800;SDS011;37855;53.204;6.568;2023-04-03T09:21:32;8.48;;;2.00;;
51800;SDS011;37855;53.204;6.568;2023-04-03T09:24:13;4.83;;;1.90;;
51800;SDS011;37855;53.204;6.568;2023-04-03T09:26:59;7.82;;;2.30;;
51800;SDS011;37855;53.204;6.568;2023-04-03T09:29:38;10.93;;;2.00;;
51800;SDS011;37855;53.204;6.568;2023-04-03T09:37:47;5.10;;;2.13;;
51800;SDS011;37855;53.204;6.568;2023-04-03T09:43:24;4.97;;;2.13;;
51800;SDS011;37855;53.204;6.568;2023-04-03T09:45:56;5.28;;;2.00;;
51800;SDS011;37855;53.204;6.568;2023-04-03T09:49:18;6.97;;;1.88;;
51800;SDS011;37855;53.204;6.568;2023-04-03T09:51:49;6.67;;;2.30;;
51800;SDS011;37855;53.204;6.568;2023-04-03T09:54:26;7.07;;;2.80;;
51800;SDS011;37855;53.204;6.568;2023-04-03T09:56:55;5.30;;;2.35;;
51800;SDS011;37855;53.204;6.568;2023-04-03T09:59:28;6.07;;;1.88;;
51800;SDS011;37855;53.204;6.568;2023-04-03T10:01:57;5.28;;;2.10;;
51800;SDS011;37855;53.204;6.568;2023-04-03T10:04:37;5.07;;;1.97;;
51800;SDS011;37855;53.204;6.568;2023-04-03T10:07:04;4.43;;;1.80;;
51800;SDS011;37855;53.204;6.568;2023-04-03T10:13:12;6.82;;;1.90;;
51800;SDS011;37855;53.204;6.568;2023-04-03T10:15:58;4.65;;;2.15;;
51800;SDS011;37855;53.204;6.568;2023-04-03T10:18:42;5.13;;;1.90;;
51800;SDS011;37855;53.204;6.568;2023-04-03T10:24:08;6.72;;;1.90;;
51800;SDS011;37855;53.204;6.568;2023-04-03T10:26:52;5.80;;;1.40;;
51800;SDS011;37855;53.204;6.568;2023-04-03T10:38:16;4.20;;;1.50;;
51800;SDS011;37855;53.204;6.568;2023-04-03T10:40:52;4.65;;;1.63;;
51800;SDS011;37855;53.204;6.568;2023-04-03T10:43:42;2.92;;;1.50;;
51800;SDS011;37855;53.204;6.568;2023-04-03T10:46:33;3.20;;;1.40;;
51800;SDS011;37855;53.204;6.568;2023-04-03T10:51:53;4.05;;;1.50;;
51800;SDS011;37855;53.204;6.568;2023-04-03T10:57:37;3.13;;;1.50;;
51800;SDS011;37855;53.204;6.568;2023-04-03T11:00:06;6.40;;;1.40;;
51800;SDS011;37855;53.204;6.568;2023-04-03T11:07:57;5.82;;;1.63;;
51800;SDS011;37855;53.204;6.568;2023-04-03T11:10:35;3.42;;;1.30;;
51800;SDS011;37855;53.204;6.568;2023-04-03T11:15:41;9.85;;;1.70;;
51800;SDS011;37855;53.204;6.568;2023-04-03T11:18:13;5.70;;;1.67;;
51800;SDS011;37855;53.204;6.568;2023-04-03T11:21:08;4.28;;;1.50;;
51800;SDS011;37855;53.204;6.568;2023-04-03T11:23:40;3.55;;;1.80;;
51800;SDS011;37855;53.204;6.568;2023-04-03T11:26:23;3.23;;;1.47;;
51800;SDS011;37855;53.204;6.568;2023-04-03T11:28:56;5.93;;;1.80;;
51800;SDS011;37855;53.204;6.568;2023-04-03T11:31:33;4.90;;;1.40;;
51800;SDS011;37855;53.204;6.568;2023-04-03T11:37:06;6.38;;;1.58;;
51800;SDS011;37855;53.204;6.568;2023-04-03T11:39:57;6.93;;;1.50;;
51800;SDS011;37855;53.204;6.568;2023-04-03T11:42:28;3.88;;;1.40;;
51800;SDS011;37855;53.204;6.568;2023-04-03T11:53:10;5.27;;;1.50;;
51800;SDS011;37855;53.204;6.568;2023-04-03T11:55:43;4.10;;;1.73;;
51800;SDS011;37855;53.204;6.568;2023-04-03T11:58:19;3.80;;;1.55;;
51800;SDS011;37855;53.204;6.568;2023-04-03T12:00:48;4.90;;;1.60;;
51800;SDS011;37855;53.204;6.568;2023-04-03T12:13:36;4.57;;;1.60;;
51800;SDS011;37855;53.204;6.568;2023-04-03T12:16:28;6.05;;;1.98;;
51800;SDS011;37855;53.204;6.568;2023-04-03T12:21:21;4.30;;;1.58;;
51800;SDS011;37855;53.204;6.568;2023-04-03T12:24:03;6.18;;;1.60;;
51800;SDS011;37855;53.204;6.568;2023-04-03T12:29:27;7.25;;;1.92;;
51800;SDS011;37855;53.204;6.568;2023-04-03T12:48:51;2.83;;;1.52;;
51800;SDS011;37855;53.204;6.568;2023-04-03T12:53:55;5.40;;;1.53;;
51800;SDS011;37855;53.204;6.568;2023-04-03T12:56:31;3.00;;;1.30;;
51800;SDS011;37855;53.204;6.568;2023-04-03T13:02:16;3.72;;;1.70;;
51800;SDS011;37855;53.204;6.568;2023-04-03T13:05:07;5.97;;;1.40;;
51800;SDS011;37855;53.204;6.568;2023-04-03T13:07:49;4.53;;;1.70;;
51800;SDS011;37855;53.204;6.568;2023-04-03T13:10:28;5.88;;;1.92;;
51800;SDS011;37855;53.204;6.568;2023-04-03T13:12:57;4.75;;;1.55;;
51800;SDS011;37855;53.204;6.568;2023-04-03T13:15:40;4.07;;;1.52;;
51800;SDS011;37855;53.204;6.568;2023-04-03T13:21:13;5.10;;;1.60;;
51800;SDS011;37855;53.204;6.568;2023-04-03T13:23:44;4.53;;;1.83;;
51800;SDS011;37855;53.204;6.568;2023-04-03T13:26:15;5.38;;;1.95;;
51800;SDS011;37855;53.204;6.568;2023-04-03T13:28:43;2.83;;;1.40;;
51800;SDS011;37855;53.204;6.568;2023-04-03T13:33:43;10.27;;;1.60;;
51800;SDS011;37855;53.204;6.568;2023-04-03T13:36:30;5.00;;;1.30;;
51800;SDS011;37855;53.204;6.568;2023-04-03T13:41:40;4.13;;;1.52;;
51800;SDS011;37855;53.204;6.568;2023-04-03T13:44:32;5.45;;;1.80;;
51800;SDS011;37855;53.204;6.568;2023-04-03T13:49:42;3.70;;;1.63;;
51800;SDS011;37855;53.204;6.568;2023-04-03T13:52:31;2.55;;;1.40;;
51800;SDS011;37855;53.204;6.568;2023-04-03T13:57:49;4.00;;;1.50;;
51800;SDS011;37855;53.204;6.568;2023-04-03T14:00:31;5.30;;;1.70;;
51800;SDS011;37855;53.204;6.568;2023-04-03T14:02:57;3.83;;;1.40;;
51800;SDS011;37855;53.204;6.568;2023-04-03T14:05:23;4.13;;;1.40;;
51800;SDS011;37855;53.204;6.568;2023-04-03T14:07:50;6.03;;;1.80;;
51800;SDS011;37855;53.204;6.568;2023-04-03T14:10:17;5.28;;;1.85;;
51800;SDS011;37855;53.204;6.568;2023-04-03T14:12:49;5.87;;;1.60;;
51800;SDS011;37855;53.204;6.568;2023-04-03T14:15:18;7.30;;;2.05;;
51800;SDS011;37855;53.204;6.568;2023-04-03T14:17:48;4.13;;;1.60;;
51800;SDS011;37855;53.204;6.568;2023-04-03T14:20:16;4.25;;;1.80;;
51800;SDS011;37855;53.204;6.568;2023-04-03T14:22:46;4.15;;;1.55;;
51800;SDS011;37855;53.204;6.568;2023-04-03T14:25:14;3.50;;;1.63;;
51800;SDS011;37855;53.204;6.568;2023-04-03T14:27:42;3.65;;;1.50;;
51800;SDS011;37855;53.204;6.568;2023-04-03T14:30:14;2.45;;;1.30;;
51800;SDS011;37855;53.204;6.568;2023-04-03T14:32:43;4.35;;;1.60;;
51800;SDS011;37855;53.204;6.568;2023-04-03T14:35:11;4.03;;;1.60;;
51800;SDS011;37855;53.204;6.568;2023-04-03T14:37:50;3.83;;;1.57;;
51800;SDS011;37855;53.204;6.568;2023-04-03T14:40:19;3.33;;;1.90;;
51800;SDS011;37855;53.204;6.568;2023-04-03T14:42:48;5.68;;;1.80;;
51800;SDS011;37855;53.204;6.568;2023-04-03T14:45:15;2.90;;;1.33;;
51800;SDS011;37855;53.204;6.568;2023-04-03T14:47:45;3.35;;;1.60;;
51800;SDS011;37855;53.204;6.568;2023-04-03T14:50:16;5.57;;;2.30;;
51800;SDS011;37855;53.204;6.568;2023-04-03T14:52:47;5.85;;;1.40;;
51800;SDS011;37855;53.204;6.568;2023-04-03T14:55:25;4.68;;;1.48;;
51800;SDS011;37855;53.204;6.568;2023-04-03T14:57:52;4.53;;;1.70;;
51800;SDS011;37855;53.204;6.568;2023-04-03T15:00:20;3.40;;;1.45;;
51800;SDS011;37855;53.204;6.568;2023-04-03T15:02:50;3.27;;;1.50;;
51800;SDS011;37855;53.204;6.568;2023-04-03T15:05:16;4.10;;;1.20;;
51800;SDS011;37855;53.204;6.568;2023-04-03T15:07:43;5.47;;;1.83;;
51800;SDS011;37855;53.204;6.568;2023-04-03T15:10:24;4.88;;;1.70;;
51800;SDS011;37855;53.204;6.568;2023-04-03T15:12:51;3.37;;;1.60;;
51800;SDS011;37855;53.204;6.568;2023-04-03T15:15:21;4.00;;;1.60;;
51800;SDS011;37855;53.204;6.568;2023-04-03T15:17:56;3.30;;;1.60;;
51800;SDS011;37855;53.204;6.568;2023-04-03T15:20:26;3.05;;;1.30;;
51800;SDS011;37855;53.204;6.568;2023-04-03T15:22:54;4.88;;;1.70;;
51800;SDS011;37855;53.204;6.568;2023-04-03T15:25:24;2.13;;;1.10;;
51800;SDS011;37855;53.204;6.568;2023-04-03T15:27:51;2.85;;;1.50;;
51800;SDS011;37855;53.204;6.568;2023-04-03T15:30:19;5.57;;;1.88;;
51800;SDS011;37855;53.204;6.568;2023-04-03T15:32:46;3.80;;;1.70;;
51800;SDS011;37855;53.204;6.568;2023-04-03T15:35:16;4.15;;;1.92;;
51800;SDS011;37855;53.204;6.568;2023-04-03T15:37:43;3.60;;;1.40;;
51800;SDS011;37855;53.204;6.568;2023-04-03T15:40:10;4.50;;;1.80;;
51800;SDS011;37855;53.204;6.568;2023-04-03T15:42:37;3.90;;;1.42;;
51800;SDS011;37855;53.204;6.568;2023-04-03T15:45:06;3.60;;;1.67;;
51800;SDS011;37855;53.204;6.568;2023-04-03T15:47:32;5.07;;;1.73;;
51800;SDS011;37855;53.204;6.568;2023-04-03T15:49:58;4.00;;;1.40;;
51800;SDS011;37855;53.204;6.568;2023-04-03T15:52:24;4.13;;;1.60;;
51800;SDS011;37855;53.204;6.568;2023-04-03T15:55:08;3.58;;;1.60;;
51800;SDS011;37855;53.204;6.568;2023-04-03T15:57:43;3.58;;;1.63;;
51800;SDS011;37855;53.204;6.568;2023-04-03T16:00:26;2.83;;;1.50;;
51800;SDS011;37855;53.204;6.568;2023-04-03T16:03:09;4.07;;;1.60;;
51800;SDS011;37855;53.204;6.568;2023-04-03T16:05:37;3.23;;;1.23;;
51800;SDS011;37855;53.204;6.568;2023-04-03T16:08:04;5.65;;;1.50;;
51800;SDS011;37855;53.204;6.568;2023-04-03T16:10:32;3.15;;;1.40;;
51800;SDS011;37855;53.204;6.568;2023-04-03T16:13:00;4.82;;;1.50;;
51800;SDS011;37855;53.204;6.568;2023-04-03T16:15:29;2.95;;;1.50;;
51800;SDS011;37855;53.204;6.568;2023-04-03T16:17:55;2.80;;;1.40;;
51800;SDS011;37855;53.204;6.568;2023-04-03T16:20:23;4.20;;;1.30;;
51800;SDS011;37855;53.204;6.568;2023-04-03T16:22:49;4.38;;;1.50;;
51800;SDS011;37855;53.204;6.568;2023-04-03T16:25:15;4.55;;;1.70;;
51800;SDS011;37855;53.204;6.568;2023-04-03T16:27:42;5.13;;;1.50;;
51800;SDS011;37855;53.204;6.568;2023-04-03T16:30:08;3.25;;;1.52;;
51800;SDS011;37855;53.204;6.568;2023-04-03T16:32:34;5.68;;;1.50;;
51800;SDS011;37855;53.204;6.568;2023-04-03T16:35:11;3.70;;;1.60;;
51800;SDS011;37855;53.204;6.568;2023-04-03T16:37:39;4.50;;;1.57;;
51800;SDS011;37855;53.204;6.568;2023-04-03T16:40:05;4.28;;;1.60;;
51800;SDS011;37855;53.204;6.568;2023-04-03T16:42:34;3.75;;;1.50;;
51800;SDS011;37855;53.204;6.568;2023-04-03T16:45:00;4.30;;;1.70;;
51800;SDS011;37855;53.204;6.568;2023-04-03T16:47:29;4.00;;;1.70;;
51800;SDS011;37855;53.204;6.568;2023-04-03T16:49:55;4.18;;;1.52;;
51800;SDS011;37855;53.204;6.568;2023-04-03T16:52:23;7.07;;;1.85;;
51800;SDS011;37855;53.204;6.568;2023-04-03T16:54:48;3.38;;;1.60;;
51800;SDS011;37855;53.204;6.568;2023-04-03T16:57:14;3.77;;;1.43;;
51800;SDS011;37855;53.204;6.568;2023-04-03T16:59:40;5.50;;;1.80;;
51800;SDS011;37855;53.204;6.568;2023-04-03T17:02:06;4.10;;;1.57;;
51800;SDS011;37855;53.204;6.568;2023-04-03T17:04:38;3.67;;;1.80;;
51800;SDS011;37855;53.204;6.568;2023-04-03T17:07:08;3.28;;;1.60;;
51800;SDS011;37855;53.204;6.568;2023-04-03T17:09:34;4.27;;;1.70;;
51800;SDS011;37855;53.204;6.568;2023-04-03T17:12:00;4.60;;;1.85;;
51800;SDS011;37855;53.204;6.568;2023-04-03T17:14:26;2.28;;;1.50;;
51800;SDS011;37855;53.204;6.568;2023-04-03T17:17:14;2.77;;;1.50;;
51800;SDS011;37855;53.204;6.568;2023-04-03T17:19:56;3.92;;;1.70;;
51800;SDS011;37855;53.204;6.568;2023-04-03T17:22:28;5.32;;;2.20;;
51800;SDS011;37855;53.204;6.568;2023-04-03T17:24:54;4.78;;;2.13;;
51800;SDS011;37855;53.204;6.568;2023-04-03T17:27:21;5.65;;;2.13;;